Time;durP1;ratioP1;P1;durP2;ratioP2;P2;SDS_P1;SDS_P2;PMS_P1;PMS_P2;Temp;Humidity;BMP_temperature;BMP_pressure;BME280_temperature;BME280_humidity;BME280_pressure;Samples;Min_cycle;Max_cycle;Signal;HPM_P1;HPM_P2
2022/04/07 00:00:39;;;;;;;8.63;3.95;;;;;;;-1.26;75.29;99005.53;4938815;29;20051;-80
2022/04/07 00:03:06;;;;;;;6.70;3.88;;;;;;;-1.28;75.36;98993.47;4938260;29;20074;-80
2022/04/07 00:05:33;;;;;;;7.95;3.30;;;;;;;-1.28;75.46;98996.91;4938277;29;20144;-80
2022/04/07 00:08:00;;;;;;;6.47;3.40;;;;;;;-1.25;75.55;98988.44;4938608;29;20064;-81
2022/04/07 00:10:27;;;;;;;5.57;3.15;;;;;;;-1.27;75.72;99020.84;4938489;29;20062;-79
2022/04/07 00:12:54;;;;;;;7.30;3.72;;;;;;;-1.28;76.01;99009.72;4938464;29;20055;-83
2022/04/07 00:15:23;;;;;;;6.40;3.20;;;;;;;-1.28;75.57;99001.16;4939234;29;20055;-81
2022/04/07 00:17:49;;;;;;;7.03;3.50;;;;;;;-1.27;75.68;99000.34;4940983;29;20055;-83
2022/04/07 00:20:16;;;;;;;5.88;3.22;;;;;;;-1.26;76.09;99000.41;4954697;29;20052;-81
2022/04/07 00:22:43;;;;;;;6.00;3.42;;;;;;;-1.35;75.78;98982.13;4961829;29;20047;-81
2022/04/07 00:25:14;;;;;;;;;;;;;;;-1.33;75.75;99000.13;4957672;29;20052;-79
2022/04/07 00:27:41;;;;;;;4.95;3.30;;;;;;;-1.54;75.72;98948.97;4938690;29;19927;-80
2022/04/07 00:30:13;;;;;;;6.50;3.50;;;;;;;-1.28;75.84;99007.16;4920929;29;20051;-81
2022/04/07 00:32:42;;;;;;;4.57;3.00;;;;;;;-1.22;76.24;99013.34;4938680;29;20047;-81
2022/04/07 00:35:09;;;;;;;5.80;3.53;;;;;;;-1.26;76.23;99000.41;4938540;29;20060;-81
2022/04/07 00:37:37;;;;;;;5.72;3.40;;;;;;;-1.21;75.94;98992.88;4938804;29;20052;-80
2022/04/07 00:40:06;;;;;;;8.55;3.72;;;;;;;-1.42;75.83;98948.53;4938907;29;20055;-81
2022/04/07 00:42:33;;;;;;;5.88;3.63;;;;;;;-1.37;76.21;98964.97;4937977;29;20059;-81
2022/04/07 00:45:00;;;;;;;5.22;3.50;;;;;;;-1.25;76.13;98984.22;4936987;29;20055;-79
2022/04/07 00:47:29;;;;;;;6.68;3.95;;;;;;;-1.21;76.13;98968.94;4936874;29;20458;-78
2022/04/07 00:49:56;;;;;;;8.15;3.85;;;;;;;-1.20;75.95;98974.13;4920605;29;20079;-79
2022/04/07 00:52:24;;;;;;;6.80;3.63;;;;;;;-1.11;76.50;98987.25;4937429;29;20513;-79
2022/04/07 00:54:51;;;;;;;8.18;4.07;;;;;;;-1.00;76.26;98992.78;4937486;29;20107;-79
2022/04/07 00:57:18;;;;;;;7.93;4.05;;;;;;;-1.04;76.00;99001.16;4936580;29;20110;-80
2022/04/07 00:59:47;;;;;;;7.18;3.97;;;;;;;-1.30;76.19;98948.97;4937694;29;20059;-81
2022/04/07 01:02:14;;;;;;;7.07;3.78;;;;;;;-1.06;76.11;98985.72;4936168;29;20066;-81
2022/04/07 01:04:41;;;;;;;6.50;4.15;;;;;;;-0.94;76.02;99010.94;4920440;29;20047;-82
2022/04/07 01:07:08;;;;;;;6.25;3.90;;;;;;;-0.98;76.36;98992.84;4937462;29;20152;-80
2022/04/07 01:09:35;;;;;;;7.57;4.30;;;;;;;-0.89;76.14;98996.56;4937336;29;20092;-81
2022/04/07 01:12:02;;;;;;;10.00;4.47;;;;;;;-1.04;75.83;98965.28;4937086;29;20233;-80
2022/04/07 01:14:29;;;;;;;7.57;4.15;;;;;;;-0.96;75.99;99006.59;4937628;29;20501;-82
2022/04/07 01:16:56;;;;;;;8.10;3.60;;;;;;;-0.86;76.35;98989.00;4938807;29;20070;-82
2022/04/07 01:19:23;;;;;;;7.45;3.92;;;;;;;-0.88;76.29;99011.16;4938308;29;20059;-78
2022/04/07 01:21:50;;;;;;;5.72;3.50;;;;;;;-0.90;76.20;99005.09;4937790;29;20075;-81
2022/04/07 01:24:18;;;;;;;8.38;3.75;;;;;;;-1.20;76.07;98958.75;4936698;29;20095;-79
2022/04/07 01:26:46;;;;;;;8.15;4.15;;;;;;;-0.92;76.46;99009.31;4935630;29;20052;-81
2022/04/07 01:29:15;;;;;;;6.65;3.55;;;;;;;-0.90;76.43;99010.22;4919674;29;20051;-81
2022/04/07 01:31:42;;;;;;;7.50;3.70;;;;;;;-0.85;76.56;99025.78;4937041;29;20052;-79
2022/04/07 01:34:15;;;;;;;7.78;3.63;;;;;;;-0.81;76.39;98991.72;4919429;29;20110;-79
2022/04/07 01:36:46;;;;;;;6.68;4.50;;;;;;;-0.93;76.18;98963.94;4936953;29;20060;-79
2022/04/07 01:39:14;;;;;;;;;;;;;;;-0.81;76.25;98993.44;4936992;29;20088;-79
2022/04/07 01:41:43;;;;;;;6.40;3.83;;;;;;;-0.89;76.53;98982.91;4936584;29;19926;-79
2022/04/07 01:44:12;;;;;;;4.90;3.35;;;;;;;-0.85;76.20;98972.78;4936302;29;20147;-78
2022/04/07 01:46:39;;;;;;;7.03;3.78;;;;;;;-0.65;76.38;99009.38;4936639;29;20064;-80
2022/04/07 01:49:07;;;;;;;6.40;3.60;;;;;;;-0.67;76.74;99003.34;4936536;29;20083;-81
2022/04/07 01:51:36;;;;;;;7.32;3.65;;;;;;;-0.66;76.07;98999.94;4936306;29;20050;-78
2022/04/07 01:54:04;;;;;;;6.30;3.72;;;;;;;-0.66;76.45;99015.34;4936401;29;20146;-79
2022/04/07 01:56:31;;;;;;;6.22;3.53;;;;;;;-1.39;75.88;98866.69;4936662;29;20059;-78
2022/04/07 01:58:58;;;;;;;7.18;4.18;;;;;;;-1.01;76.04;98938.88;4937672;29;20114;-79
2022/04/07 02:01:26;;;;;;;5.93;3.65;;;;;;;-0.68;76.46;99011.84;4936638;29;20055;-79
2022/04/07 02:03:53;;;;;;;6.80;3.80;;;;;;;-0.67;76.44;99000.78;4936207;29;20056;-78
2022/04/07 02:06:20;;;;;;;7.75;4.32;;;;;;;-0.66;76.44;98997.38;4919265;29;20074;-80
2022/04/07 02:08:47;;;;;;;6.18;3.83;;;;;;;-0.73;76.28;98990.31;4935890;29;20430;-80
2022/04/07 02:11:14;;;;;;;6.45;3.80;;;;;;;-0.64;76.16;98982.91;4918853;29;20059;-81
2022/04/07 02:13:41;;;;;;;6.78;3.65;;;;;;;-0.65;76.25;98985.41;4936217;29;20063;-81
2022/04/07 02:16:10;;;;;;;5.95;3.88;;;;;;;-0.65;76.46;99004.25;4936119;29;20159;-81
2022/04/07 02:18:38;;;;;;;7.93;3.97;;;;;;;-0.95;76.25;98941.66;4936247;29;20056;-81
2022/04/07 02:21:06;;;;;;;6.38;3.80;;;;;;;-0.60;76.80;98994.16;4938105;29;20172;-80
2022/04/07 02:23:42;;;;;;;7.47;4.03;;;;;;;-0.56;76.34;98987.41;4938693;29;20055;-81
2022/04/07 02:26:15;;;;;;;5.68;3.85;;;;;;;-0.65;76.31;98976.03;4938273;29;20052;-81
2022/04/07 02:28:43;;;;;;;8.88;4.47;;;;;;;-0.60;76.43;98983.00;4938152;29;20055;-82
2022/04/07 02:31:13;;;;;;;8.23;4.15;;;;;;;-0.51;76.70;98997.03;4936116;29;20071;-81
2022/04/07 02:33:40;;;;;;;7.60;4.03;;;;;;;-0.73;76.56;98949.28;4936162;29;20593;-82
2022/04/07 02:36:09;;;;;;;7.57;4.63;;;;;;;-0.48;76.68;98991.97;4937129;29;20047;-80
2022/04/07 02:38:36;;;;;;;8.18;4.53;;;;;;;-0.47;76.33;98982.63;4936934;29;20055;-81
2022/04/07 02:41:04;;;;;;;8.05;4.47;;;;;;;-0.34;76.30;98989.91;4920102;29;20142;-80
2022/04/07 02:43:31;;;;;;;10.32;5.20;;;;;;;-0.39;76.07;98982.84;4936664;29;20413;-83
2022/04/07 02:45:58;;;;;;;8.95;4.82;;;;;;;-0.33;75.93;99006.16;4936568;29;20134;-78
2022/04/07 02:48:25;;;;;;;8.27;4.40;;;;;;;-0.55;76.24;98951.56;4919741;29;20058;-80
2022/04/07 02:50:51;;;;;;;8.30;4.75;;;;;;;-1.15;76.58;98858.97;4939107;29;20536;-79
2022/04/07 02:53:18;;;;;;;7.72;4.32;;;;;;;-0.42;75.98;98971.66;4927462;29;20433;-78
2022/04/07 02:55:45;;;;;;;9.30;4.10;;;;;;;-0.29;76.26;99008.88;4958924;29;20062;-76
2022/04/07 02:58:12;;;;;;;6.68;3.90;;;;;;;-0.18;75.90;99010.94;4953730;29;20055;-80
2022/04/07 03:00:39;;;;;;;7.95;4.10;;;;;;;-0.13;75.96;98993.97;4937149;29;20059;-78
2022/04/07 03:03:06;;;;;;;8.38;4.45;;;;;;;-0.06;76.03;99004.50;4936970;29;20485;-79
2022/04/07 03:05:34;;;;;;;7.47;4.57;;;;;;;-0.24;75.68;98967.94;4937040;29;20059;-80
2022/04/07 03:08:00;;;;;;;8.57;4.57;;;;;;;-0.05;75.81;99007.91;4938852;29;20048;-80
2022/04/07 03:10:27;;;;;;;8.60;4.90;;;;;;;-0.04;75.90;99004.53;4939463;29;20541;-79
2022/04/07 03:12:54;;;;;;;11.68;5.43;;;;;;;-0.10;75.84;98997.50;4906813;29;20052;-80
2022/04/07 03:15:24;;;;;;;10.43;4.75;;;;;;;0.05;75.65;99003.97;4938849;29;20062;-79
2022/04/07 03:17:50;;;;;;;10.23;5.40;;;;;;;0.10;75.46;99013.53;4939345;29;20051;-78
2022/04/07 03:20:18;;;;;;;8.57;5.45;;;;;;;0.18;75.65;99019.78;4938852;29;20429;-80
2022/04/07 03:22:45;;;;;;;14.50;5.70;;;;;;;0.15;75.50;99003.41;4939290;29;20565;-80
2022/04/07 03:25:11;;;;;;;9.77;5.32;;;;;;;0.16;75.49;98998.31;4921871;29;20524;-81
2022/04/07 03:27:38;;;;;;;12.07;6.93;;;;;;;0.24;75.33;99010.53;4906374;29;20102;-79
2022/04/07 03:30:06;;;;;;;11.55;5.60;;;;;;;0.23;75.32;98986.53;4938967;29;20117;-80
2022/04/07 03:32:33;;;;;;;11.68;5.68;;;;;;;0.50;75.40;99011.34;4939021;29;20059;-79
2022/04/07 03:35:00;;;;;;;12.32;6.30;;;;;;;0.65;74.58;99013.50;4938861;29;20052;-81
2022/04/07 03:37:28;;;;;;;10.05;5.90;;;;;;;0.58;74.60;98961.91;4938396;29;20086;-78
2022/04/07 03:39:54;;;;;;;9.52;5.63;;;;;;;0.86;73.80;98998.69;4939083;29;20063;-82
2022/04/07 03:42:22;;;;;;;10.90;6.10;;;;;;;0.70;73.94;98943.38;4921781;29;20061;-80
2022/04/07 03:44:48;;;;;;;11.70;6.07;;;;;;;1.08;73.74;99007.88;4938700;29;20063;-81
2022/04/07 03:47:15;;;;;;;12.25;5.93;;;;;;;1.14;73.90;98987.44;4921781;29;20063;-80
2022/04/07 03:49:42;;;;;;;11.93;6.35;;;;;;;1.24;73.28;98991.13;4938539;29;20058;-81
2022/04/07 03:52:09;;;;;;;10.18;6.30;;;;;;;1.21;73.22;98985.91;4938653;29;20150;-82
2022/04/07 03:54:36;;;;;;;14.07;7.15;;;;;;;1.29;73.30;99009.25;4938476;29;20150;-79
2022/04/07 03:57:03;;;;;;;12.27;6.55;;;;;;;1.30;73.12;99004.16;4937497;29;20486;-82
2022/04/07 03:59:33;;;;;;;12.38;6.50;;;;;;;1.21;73.06;98975.63;4938712;29;20058;-83
2022/04/07 04:02:00;;;;;;;11.35;6.80;;;;;;;1.35;73.16;99007.72;4938609;29;20410;-80
2022/04/07 04:04:27;;;;;;;11.80;6.07;;;;;;;1.37;72.45;99011.19;4937235;29;20106;-82
2022/04/07 04:06:54;;;;;;;12.23;6.70;;;;;;;1.30;72.83;99005.88;4938238;29;20111;-83
2022/04/07 04:09:21;;;;;;;12.52;6.32;;;;;;;1.41;73.02;98992.44;4939667;29;20188;-83
2022/04/07 04:11:48;;;;;;;9.93;6.05;;;;;;;1.42;72.52;98999.34;4939893;29;20468;-82
2022/04/07 04:14:16;;;;;;;10.23;6.13;;;;;;;1.51;72.54;99009.00;4938845;29;20067;-81
2022/04/07 04:16:42;;;;;;;10.38;6.03;;;;;;;1.46;72.17;98959.09;4946348;29;20087;-81
2022/04/07 04:19:10;;;;;;;12.85;6.22;;;;;;;1.55;71.89;98979.94;4910754;29;20494;-81
2022/04/07 04:21:37;;;;;;;13.60;7.45;;;;;;;1.90;71.86;98994.53;4944195;29;20055;-79
2022/04/07 04:24:04;;;;;;;9.02;5.68;;;;;;;2.08;70.70;98999.22;4946127;29;20560;-82
2022/04/07 04:26:31;;;;;;;8.57;5.55;;;;;;;1.97;70.75;98976.66;4922091;29;20509;-79
2022/04/07 04:28:58;;;;;;;9.93;5.43;;;;;;;2.26;70.15;99009.97;4937721;29;20060;-82
2022/04/07 04:31:27;;;;;;;8.57;5.43;;;;;;;2.14;70.66;98978.75;4922410;29;20509;-87
2022/04/07 04:33:55;;;;;;;11.45;5.63;;;;;;;2.02;70.39;98946.72;4922444;29;20580;-86
2022/04/07 04:36:22;;;;;;;8.60;4.88;;;;;;;2.32;70.13;98971.41;4937720;29;20545;-86
2022/04/07 04:38:49;;;;;;;8.70;5.32;;;;;;;2.54;70.00;98995.97;4922748;29;20059;-84
2022/04/07 04:41:17;;;;;;;10.95;4.93;;;;;;;2.59;69.42;98983.19;4925313;29;20513;-85
2022/04/07 04:43:44;;;;;;;8.13;4.82;;;;;;;2.42;69.52;98983.69;4940717;29;20431;-84
2022/04/07 04:46:12;;;;;;;7.32;4.90;;;;;;;2.38;69.86;98989.59;4942515;29;20059;-84
2022/04/07 04:48:39;;;;;;;7.82;5.30;;;;;;;2.39;69.41;98936.38;4939526;29;20517;-85
2022/04/07 04:51:06;;;;;;;9.38;5.18;;;;;;;2.63;69.18;98954.91;4938744;29;20095;-83
2022/04/07 04:53:33;;;;;;;8.70;5.20;;;;;;;2.96;68.72;98973.63;4937838;29;20091;-83
2022/04/07 04:56:00;;;;;;;10.13;5.28;;;;;;;3.12;68.26;98969.59;4932385;29;20559;-83
2022/04/07 04:58:27;;;;;;;11.57;5.60;;;;;;;3.17;68.11;98991.22;4939085;29;20465;-84
2022/04/07 05:00:54;;;;;;;9.18;5.70;;;;;;;3.20;68.29;98983.53;4956947;29;20058;-84
2022/04/07 05:03:21;;;;;;;8.45;5.65;;;;;;;3.34;67.95;98979.50;4938503;29;20084;-83
2022/04/07 05:05:49;;;;;;;9.40;5.47;;;;;;;3.06;67.15;98913.63;4956560;29;20059;-82
2022/04/07 05:08:18;;;;;;;10.20;5.22;;;;;;;3.32;67.57;98970.84;4957102;29;20513;-84
2022/04/07 05:10:45;;;;;;;8.57;5.27;;;;;;;2.73;67.39;98863.16;4956061;29;20059;-83
2022/04/07 05:13:12;;;;;;;10.98;5.30;;;;;;;3.41;67.26;98989.09;4956160;29;20297;-82
2022/04/07 05:15:39;;;;;;;8.77;5.43;;;;;;;3.34;67.41;98930.47;4948658;29;20058;-83
2022/04/07 05:18:09;;;;;;;11.48;5.57;;;;;;;3.60;66.48;98974.78;4940343;29;20425;-84
2022/04/07 05:20:40;;;;;;;9.27;5.50;;;;;;;3.42;66.86;98982.22;4942112;29;20055;-82
2022/04/07 05:23:07;;;;;;;10.00;5.70;;;;;;;3.42;66.89;98977.03;4942164;29;20059;-83
2022/04/07 05:25:33;;;;;;;13.10;5.95;;;;;;;3.44;66.36;98988.28;4960318;29;20043;-83
2022/04/07 05:28:01;;;;;;;9.70;5.60;;;;;;;3.41;66.40;98980.47;4971662;28;20111;-84
2022/04/07 05:30:28;;;;;;;8.80;5.47;;;;;;;3.27;66.75;98975.94;4956789;29;20033;-83
2022/04/07 05:32:55;;;;;;;10.63;6.18;;;;;;;3.39;66.42;98982.16;4958420;29;20053;-83
2022/04/07 05:35:26;;;;;;;12.43;5.95;;;;;;;3.44;66.47;98959.88;4956545;29;20055;-83
2022/04/07 05:38:02;;;;;;;9.45;5.68;;;;;;;2.63;65.83;98825.97;4947615;29;20047;-85
2022/04/07 05:40:30;;;;;;;11.63;5.80;;;;;;;3.44;66.33;98973.66;4914160;29;20047;-83
2022/04/07 05:42:59;;;;;;;10.55;5.80;;;;;;;3.09;66.21;98913.66;4952677;29;20110;-84
2022/04/07 05:45:26;;;;;;;10.27;5.65;;;;;;;3.56;66.61;98983.34;4941201;29;20138;-85
2022/04/07 05:47:53;;;;;;;9.98;5.90;;;;;;;3.38;66.23;98949.47;4931652;29;20089;-83
2022/04/07 05:50:20;;;;;;;9.65;5.53;;;;;;;3.62;66.77;99003.25;4947881;29;20079;-83
2022/04/07 05:52:47;;;;;;;10.80;5.65;;;;;;;3.63;66.26;98979.13;4956054;29;20062;-82
2022/04/07 05:55:14;;;;;;;10.85;5.78;;;;;;;3.62;66.46;98959.34;4961394;29;20043;-81
2022/04/07 05:57:43;;;;;;;9.82;5.45;;;;;;;3.56;66.81;98941.16;4961116;29;20059;-84
2022/04/07 06:00:18;;;;;;;12.15;6.13;;;;;;;3.57;66.46;98937.72;4945296;29;20055;-82
2022/04/07 06:02:47;;;;;;;11.95;6.07;;;;;;;3.83;66.60;98967.44;4940298;29;20087;-83
2022/04/07 06:05:22;;;;;;;10.23;5.55;;;;;;;3.08;66.52;98856.03;4961799;29;20078;-82
2022/04/07 06:07:49;;;;;;;8.88;5.15;;;;;;;3.56;67.01;98930.81;4959647;29;20055;-82
2022/04/07 06:10:16;;;;;;;10.55;5.80;;;;;;;3.41;67.13;98926.25;4959274;29;20075;-82
2022/04/07 06:12:46;;;;;;;10.25;5.13;;;;;;;3.59;67.35;98929.16;4958772;29;20147;-82
2022/04/07 06:15:13;;;;;;;9.95;5.75;;;;;;;3.72;67.54;98942.25;4960384;29;20044;-82
2022/04/07 06:17:42;;;;;;;8.95;5.25;;;;;;;3.66;67.48;98940.47;4959673;29;20063;-82
2022/04/07 06:20:10;;;;;;;8.05;4.88;;;;;;;3.68;67.09;98942.22;4959677;29;20091;-82
2022/04/07 06:22:40;;;;;;;9.48;5.22;;;;;;;3.28;67.81;98905.38;4957718;29;20470;-80
2022/04/07 06:25:08;;;;;;;12.35;5.57;;;;;;;3.48;67.90;98944.47;4951863;29;20052;-81
2022/04/07 06:27:43;;;;;;;10.05;5.15;;;;;;;3.33;68.09;98876.22;4944358;29;20060;-82
2022/04/07 06:30:18;;;;;;;10.88;5.60;;;;;;;3.61;67.32;98916.25;4947118;29;20062;-81
2022/04/07 06:32:46;;;;;;;10.70;6.00;;;;;;;3.31;68.11;98883.06;4950141;29;20063;-82
2022/04/07 06:35:15;;;;;;;9.13;4.82;;;;;;;3.33;68.05;98907.19;4923799;29;20059;-81
2022/04/07 06:37:53;;;;;;;11.20;5.13;;;;;;;3.17;68.64;98881.13;4937498;29;20059;-83
2022/04/07 06:40:23;;;;;;;11.50;4.82;;;;;;;3.41;68.66;98918.53;4937106;29;20453;-82
2022/04/07 06:42:51;;;;;;;11.75;4.93;;;;;;;3.47;69.25;98909.16;4919017;29;20062;-83
2022/04/07 06:45:27;;;;;;;10.40;5.47;;;;;;;3.34;68.44;98860.75;4921862;29;20166;-83
2022/04/07 06:47:55;;;;;;;14.95;5.72;;;;;;;3.54;68.91;98899.78;4936318;29;20055;-84
2022/04/07 06:50:24;;;;;;;12.45;6.00;;;;;;;3.55;69.08;98911.00;4936749;29;20053;-84
2022/04/07 06:52:52;;;;;;;11.45;5.13;;;;;;;3.03;69.03;98821.53;4919246;29;20130;-83
2022/04/07 06:55:19;;;;;;;21.13;10.18;;;;;;;3.46;69.02;98912.59;4936484;29;20078;-83
2022/04/07 06:57:57;;;;;;;12.93;5.38;;;;;;;3.12;69.62;98853.47;4934544;29;20048;-86
2022/04/07 07:00:33;;;;;;;10.23;5.03;;;;;;;3.33;69.64;98889.97;4936555;29;20056;-83
2022/04/07 07:03:02;;;;;;;11.75;4.97;;;;;;;3.19;69.56;98878.56;4935211;29;20055;-84
2022/04/07 07:05:35;;;;;;;7.20;5.13;;;;;;;3.30;70.09;98900.25;4905078;29;20052;-83
2022/04/07 07:08:19;;;;;;;8.63;4.95;;;;;;;3.36;69.81;98896.94;4938099;29;20056;-84
2022/04/07 07:10:50;;;;;;;8.48;4.80;;;;;;;3.33;70.35;98892.56;4922892;29;20057;-84
2022/04/07 07:13:21;;;;;;;11.10;5.18;;;;;;;3.33;70.35;98879.66;4905577;29;20151;-83
2022/04/07 07:15:54;;;;;;;9.85;5.10;;;;;;;3.02;69.95;98818.94;4919476;29;20430;-83
2022/04/07 07:18:22;;;;;;;8.82;5.32;;;;;;;3.44;70.20;98888.47;4919422;29;20115;-83
2022/04/07 07:20:50;;;;;;;9.02;5.32;;;;;;;3.40;70.35;98866.03;4919974;29;20510;-84
2022/04/07 07:23:18;;;;;;;9.32;4.60;;;;;;;3.45;70.37;98881.59;4889518;29;20386;-84
2022/04/07 07:25:47;;;;;;;10.70;5.18;;;;;;;3.39;70.66;98892.66;4903814;29;20159;-85
2022/04/07 07:28:17;;;;;;;12.40;5.07;;;;;;;2.90;70.39;98832.47;4918778;29;20505;-84
2022/04/07 07:30:47;;;;;;;10.10;5.07;;;;;;;2.72;70.38;98794.34;4918930;29;20154;-84
2022/04/07 07:33:14;;;;;;;10.40;4.88;;;;;;;3.26;70.22;98846.84;4919206;29;20094;-85
2022/04/07 07:35:45;;;;;;;7.60;4.45;;;;;;;3.37;70.56;98871.13;4935950;29;20058;-84
2022/04/07 07:38:13;;;;;;;7.57;4.20;;;;;;;3.19;71.01;98874.28;4920071;29;20055;-82
2022/04/07 07:40:41;;;;;;;7.07;4.30;;;;;;;2.56;71.44;98797.47;4903399;29;20063;-83
2022/04/07 07:43:09;;;;;;;5.78;4.28;;;;;;;2.94;71.64;98842.00;4919189;29;20047;-83
2022/04/07 07:45:37;;;;;;;7.25;4.40;;;;;;;2.65;71.80;98795.09;4918513;29;20055;-82
2022/04/07 07:48:27;;;;;;;7.28;4.60;;;;;;;3.05;71.62;98876.63;4908302;29;20062;-85
2022/04/07 07:50:56;;;;;;;6.53;4.25;;;;;;;2.94;71.82;98838.56;4922352;29;20527;-83
2022/04/07 07:53:24;;;;;;;7.55;4.20;;;;;;;3.01;71.40;98840.41;4927040;29;20056;-81
2022/04/07 07:55:53;;;;;;;8.50;4.47;;;;;;;2.91;71.83;98826.47;4946081;29;20196;-82
2022/04/07 07:58:23;;;;;;;8.30;4.25;;;;;;;3.28;71.63;98864.09;4929342;29;20059;-79
2022/04/07 08:00:51;;;;;;;6.90;4.18;;;;;;;3.01;71.50;98848.13;4943446;29;20051;-82
2022/04/07 08:03:19;;;;;;;6.95;4.03;;;;;;;3.10;71.63;98819.03;4944577;29;20063;-82
2022/04/07 08:05:47;;;;;;;16.73;5.65;;;;;;;3.33;71.92;98859.00;4945182;29;20074;-83
2022/04/07 08:08:14;;;;;;;7.38;4.00;;;;;;;2.75;71.75;98773.75;4923007;29;20059;-84
2022/04/07 08:10:42;;;;;;;6.90;4.30;;;;;;;3.24;71.63;98836.50;4906043;29;20122;-82
2022/04/07 08:13:10;;;;;;;8.75;4.43;;;;;;;3.34;71.59;98811.72;4906128;29;20098;-83
2022/04/07 08:15:38;;;;;;;7.93;4.38;;;;;;;3.61;70.96;98834.47;4936941;29;20115;-85
2022/04/07 08:18:05;;;;;;;7.28;4.55;;;;;;;2.83;70.63;98724.88;4921509;29;20536;-83
2022/04/07 08:20:33;;;;;;;6.47;4.65;;;;;;;3.36;70.35;98822.06;4921734;29;20572;-83
2022/04/07 08:23:06;;;;;;;9.02;5.00;;;;;;;3.39;70.93;98802.31;4939504;29;20146;-84
2022/04/07 08:25:34;;;;;;;6.07;4.30;;;;;;;3.60;71.30;98829.31;4890198;29;20150;-84
2022/04/07 08:28:02;;;;;;;6.78;4.22;;;;;;;3.46;70.92;98811.91;4922371;29;20063;-84
2022/04/07 08:30:33;;;;;;;7.25;4.50;;;;;;;3.35;70.81;98794.50;4922306;29;20078;-83
2022/04/07 08:33:03;;;;;;;8.43;4.38;;;;;;;3.63;70.67;98822.44;4938943;29;20154;-83
2022/04/07 08:35:30;;;;;;;8.50;4.28;;;;;;;3.72;70.89;98828.59;4938811;29;20067;-82
2022/04/07 08:37:57;;;;;;;7.93;4.80;;;;;;;3.75;70.29;98793.38;4939881;29;20056;-84
2022/04/07 08:40:25;;;;;;;9.90;4.32;;;;;;;4.00;69.70;98848.81;4906643;29;20079;-84
2022/04/07 08:42:52;;;;;;;10.25;4.65;;;;;;;3.83;70.12;98822.75;4922282;29;20065;-83
2022/04/07 08:45:20;;;;;;;7.13;4.45;;;;;;;3.66;70.39;98794.09;4922689;29;20062;-85
2022/04/07 08:47:50;;;;;;;8.40;4.70;;;;;;;3.84;70.35;98829.66;4938357;29;20086;-84
2022/04/07 08:50:21;;;;;;;;;;;;;;;3.81;70.48;98814.13;4906215;29;20142;-88
2022/04/07 08:52:50;;;;;;;8.73;4.43;;;;;;;3.76;70.17;98809.72;4938112;29;19927;-86
2022/04/07 08:55:18;;;;;;;8.93;5.07;;;;;;;3.99;70.23;98816.06;4921535;29;20102;-87
2022/04/07 08:57:52;;;;;;;10.40;5.15;;;;;;;4.14;70.16;98828.31;4921560;29;20147;-87
2022/04/07 09:00:24;;;;;;;10.98;5.40;;;;;;;4.21;70.36;98785.31;4920943;29;20056;-86
2022/04/07 09:02:54;;;;;;;10.97;5.73;;;;;;;4.33;69.49;98803.56;4905707;29;20052;-88
2022/04/07 09:05:31;;;;;;;10.95;5.38;;;;;;;4.37;70.31;98786.38;4936734;29;20063;-87
2022/04/07 09:08:02;;;;;;;6.93;4.55;;;;;;;3.97;69.50;98740.25;4921071;29;20111;-88
2022/04/07 09:10:34;;;;;;;7.32;4.63;;;;;;;4.19;69.84;98789.59;4890107;29;20078;-87
2022/04/07 09:13:05;;;;;;;9.38;4.90;;;;;;;3.98;69.96;98735.94;4920511;29;20110;-86
2022/04/07 09:15:32;;;;;;;7.47;4.82;;;;;;;3.98;70.13;98723.91;4920341;29;20494;-88
2022/04/07 09:18:01;;;;;;;10.65;5.35;;;;;;;4.30;70.07;98756.97;4937463;29;20065;-85
2022/04/07 09:20:29;;;;;;;9.25;5.05;;;;;;;4.55;70.23;98771.03;4921108;29;20096;-87
2022/04/07 09:22:58;;;;;;;8.32;5.30;;;;;;;4.57;69.43;98758.97;4923622;29;20050;-86
2022/04/07 09:25:26;;;;;;;11.20;5.47;;;;;;;4.67;69.13;98754.78;4942652;29;20055;-86
2022/04/07 09:27:57;;;;;;;9.77;5.63;;;;;;;4.55;69.42;98746.91;4939315;29;20062;-88
2022/04/07 09:30:25;;;;;;;9.95;5.20;;;;;;;4.49;68.92;98758.03;4940831;29;20055;-87
2022/04/07 09:32:52;;;;;;;12.73;5.60;;;;;;;4.26;69.18;98708.69;4921133;29;20078;-87
2022/04/07 09:35:19;;;;;;;10.05;5.25;;;;;;;4.39;69.25;98725.16;4920166;29;20051;-83
2022/04/07 09:37:47;;;;;;;11.18;5.80;;;;;;;4.26;69.29;98743.16;4919461;29;20056;-87
2022/04/07 09:40:16;;;;;;;9.98;5.20;;;;;;;4.15;69.60;98720.63;4888952;29;20600;-87
2022/04/07 09:42:45;;;;;;;7.67;5.10;;;;;;;4.20;70.40;98742.25;4936540;29;20517;-88
2022/04/07 09:45:13;;;;;;;10.07;5.88;;;;;;;4.31;70.42;98725.97;4936934;29;20051;-85
2022/04/07 09:47:50;;;;;;;10.02;5.47;;;;;;;4.48;69.44;98761.50;4936905;29;20138;-86
2022/04/07 09:50:22;;;;;;;9.30;5.38;;;;;;;4.46;69.77;98747.69;4936679;29;20514;-87
2022/04/07 09:52:59;;;;;;;10.68;5.45;;;;;;;4.46;69.56;98737.34;4936758;29;20191;-86
2022/04/07 09:55:30;;;;;;;10.55;6.10;;;;;;;4.52;69.75;98742.56;4936047;29;20163;-86
2022/04/07 09:58:00;;;;;;;12.90;6.35;;;;;;;4.23;69.99;98688.81;4920470;29;20111;-89
2022/04/07 10:00:28;;;;;;;10.65;6.40;;;;;;;4.08;69.71;98661.09;4921082;29;20156;-83
2022/04/07 10:02:57;;;;;;;11.55;6.78;;;;;;;4.60;69.20;98716.75;4938012;29;20047;-82
2022/04/07 10:05:25;;;;;;;9.37;5.70;;;;;;;4.75;69.08;98723.78;4938286;29;20144;-83
2022/04/07 10:07:53;;;;;;;12.10;6.35;;;;;;;4.80;69.41;98717.81;4904939;29;20051;-85
2022/04/07 10:10:21;;;;;;;11.60;5.70;;;;;;;4.86;68.53;98707.50;4905471;29;20573;-82
2022/04/07 10:12:49;;;;;;;11.82;6.32;;;;;;;4.91;68.59;98705.81;4935783;29;20425;-83
2022/04/07 10:15:17;;;;;;;12.30;6.45;;;;;;;5.10;68.62;98722.34;4920025;29;20454;-83
2022/04/07 10:17:46;;;;;;;10.85;6.32;;;;;;;5.14;67.97;98697.31;4933729;29;20438;-84
2022/04/07 10:20:16;;;;;;;11.52;6.40;;;;;;;5.22;67.72;98698.25;4936349;29;20107;-82
2022/04/07 10:22:49;;;;;;;;;;;;;;;5.14;68.64;98707.69;4936572;29;20055;-83
2022/04/07 10:25:19;;;;;;;11.02;6.32;;;;;;;5.06;68.32;98684.34;4936815;29;19961;-84
2022/04/07 10:27:52;;;;;;;11.50;6.05;;;;;;;5.60;67.54;98710.56;4936429;29;20521;-84
2022/04/07 10:30:21;;;;;;;12.60;6.20;;;;;;;5.76;66.82;98695.94;4940225;29;20074;-85
2022/04/07 10:32:50;;;;;;;12.82;5.97;;;;;;;5.52;67.33;98683.75;4945100;29;20059;-82
2022/04/07 10:35:35;;;;;;;11.60;6.53;;;;;;;5.88;66.93;98710.69;4950054;29;20056;-83
2022/04/07 10:38:07;;;;;;;10.65;6.53;;;;;;;5.85;67.04;98696.00;4937378;29;20031;-83
2022/04/07 10:40:54;;;;;;;12.43;6.65;;;;;;;5.76;66.92;98680.38;4925848;29;20059;-84
2022/04/07 10:43:25;;;;;;;11.05;7.07;;;;;;;5.97;66.52;98694.34;4937853;29;20054;-85
2022/04/07 10:46:02;;;;;;;9.90;6.03;;;;;;;5.86;66.79;98689.94;4920397;29;20226;-84
2022/04/07 10:48:31;;;;;;;13.68;7.38;;;;;;;5.81;66.88;98685.59;4936937;29;20064;-83
2022/04/07 10:51:07;;;;;;;13.73;7.43;;;;;;;5.49;67.27;98625.03;4936556;29;20098;-84
2022/04/07 10:53:39;;;;;;;16.08;7.75;;;;;;;5.27;67.17;98605.94;4935668;29;20465;-87
2022/04/07 10:56:24;;;;;;;13.70;7.45;;;;;;;5.54;67.28;98658.72;4949754;29;20106;-83
2022/04/07 10:58:55;;;;;;;14.90;7.93;;;;;;;5.54;67.20;98649.22;4922806;29;20059;-85
2022/04/07 11:01:31;;;;;;;15.52;8.55;;;;;;;5.87;67.49;98690.78;4955552;29;20063;-84
2022/04/07 11:04:25;;;;;;;17.25;8.90;;;;;;;5.87;67.08;98688.19;4955397;29;20546;-84
2022/04/07 11:07:04;;;;;;;16.65;9.30;;;;;;;5.18;67.00;98554.09;4938402;29;20055;-86
2022/04/07 11:10:00;;;;;;;18.87;9.87;;;;;;;6.22;66.84;98665.00;4938879;29;20728;-87
2022/04/07 11:12:37;;;;;;;14.93;8.45;;;;;;;6.30;66.67;98672.78;4953707;29;20855;-84
2022/04/07 11:15:05;;;;;;;16.20;8.70;;;;;;;5.48;66.81;98508.47;4963400;29;20059;-84
2022/04/07 11:17:47;;;;;;;16.98;9.35;;;;;;;6.60;65.80;98669.34;4961687;29;20071;-82
2022/04/07 11:20:15;;;;;;;19.67;9.43;;;;;;;6.79;65.55;98664.19;4963656;29;20055;-84
2022/04/07 11:22:47;;;;;;;16.45;9.57;;;;;;;6.70;65.78;98668.50;4942871;29;20532;-82
2022/04/07 11:25:24;;;;;;;18.70;11.27;;;;;;;6.46;65.61;98630.44;4958681;29;20472;-83
2022/04/07 11:28:09;;;;;;;17.80;10.55;;;;;;;6.40;65.43;98609.69;4940463;29;20394;-82
2022/04/07 11:30:47;;;;;;;18.58;10.43;;;;;;;6.78;65.50;98657.28;4960943;29;20146;-81
2022/04/07 11:33:26;;;;;;;21.55;11.20;;;;;;;6.71;66.12;98649.47;4963016;29;20117;-82
2022/04/07 11:35:59;;;;;;;19.25;11.13;;;;;;;6.76;66.14;98665.03;4962268;29;20066;-82
2022/04/07 11:38:29;;;;;;;21.20;11.63;;;;;;;6.54;66.28;98653.81;4963291;29;20051;-81
2022/04/07 11:40:59;;;;;;;19.63;10.13;;;;;;;6.67;66.17;98649.50;4963297;29;20059;-83
2022/04/07 11:43:27;;;;;;;21.23;11.32;;;;;;;6.34;66.54;98594.13;4942890;29;20053;-82
2022/04/07 11:45:55;;;;;;;19.25;10.77;;;;;;;6.86;66.07;98653.81;4941429;29;20055;-85